createdAt,value
2023-01-01T00:01:42.070Z,43.91
2023-01-01T00:04:12.037Z,43.88
2023-01-01T00:06:38.890Z,43.57
2023-01-01T00:09:24.762Z,43.82
2023-01-01T00:11:51.714Z,43.87
2023-01-01T00:14:18.487Z,44.15
2023-01-01T00:16:45.340Z,44.39
2023-01-01T00:19:12.229Z,44.55
2023-01-01T00:21:40.148Z,44.45
2023-01-01T00:24:07.437Z,44.30
2023-01-01T00:26:35.456Z,44.37
2023-01-01T00:29:05.522Z,44.70
2023-01-01T00:31:32.684Z,44.63
2023-01-01T00:33:59.643Z,44.48
2023-01-01T00:36:30.388Z,44.97
2023-01-01T00:38:57.155Z,44.68
2023-01-01T00:41:24.520Z,44.90
2023-01-01T00:43:51.912Z,45.02
2023-01-01T00:46:18.842Z,44.73
2023-01-01T00:48:46.016Z,45.13
2023-01-01T00:51:15.474Z,45.29
2023-01-01T00:53:42.271Z,45.22
2023-01-01T00:56:09.329Z,45.33
2023-01-01T00:58:36.065Z,45.65
2023-01-01T01:01:03.355Z,45.71
2023-01-01T01:03:30.842Z,45.76
2023-01-01T01:06:19.075Z,45.92
2023-01-01T01:08:47.301Z,46.07
2023-01-01T01:11:20.096Z,46.44
2023-01-01T01:13:48.350Z,46.50
2023-01-01T01:16:21.973Z,46.40
2023-01-01T01:18:57.616Z,46.54
2023-01-01T01:21:25.113Z,46.69
2023-01-01T01:23:52.710Z,46.93
2023-01-01T01:26:22.313Z,46.91
2023-01-01T01:28:50.267Z,47.28
2023-01-01T01:31:18.971Z,46.85
2023-01-01T01:33:47.051Z,46.83
2023-01-01T01:36:14.852Z,47.21
2023-01-01T01:38:42.091Z,47.11
2023-01-01T01:41:13.286Z,47.21
2023-01-01T01:44:04.533Z,46.85
2023-01-01T01:46:40.207Z,47.01
2023-01-01T01:49:30.242Z,47.17
2023-01-01T01:51:58.431Z,47.28
2023-01-01T01:54:28.862Z,47.01
2023-01-01T01:57:00.773Z,47.18
2023-01-01T01:59:31.900Z,47.21
2023-01-01T02:01:59.096Z,47.30
2023-01-01T02:04:26.013Z,47.53
2023-01-01T02:06:54.351Z,48.26
2023-01-01T02:09:21.855Z,48.78
2023-01-01T02:11:48.623Z,48.77
2023-01-01T02:14:15.543Z,49.05
2023-01-01T02:17:07.633Z,49.47
2023-01-01T02:19:52.844Z,49.83
2023-01-01T02:22:33.027Z,50.31
2023-01-01T02:25:25.591Z,51.09
2023-01-01T02:28:04.865Z,51.14
2023-01-01T02:30:34.206Z,51.46
2023-01-01T02:33:06.721Z,51.93
2023-01-01T02:35:42.597Z,51.82
2023-01-01T02:38:24.121Z,52.03
2023-01-01T02:40:55.996Z,51.98
2023-01-01T02:43:25.021Z,52.54
2023-01-01T02:45:54.125Z,52.26
2023-01-01T02:48:37.613Z,52.08
2023-01-01T02:51:25.324Z,52.54
2023-01-01T02:54:05.327Z,52.96
2023-01-01T02:57:16.715Z,52.74
2023-01-01T03:00:04.982Z,52.94
2023-01-01T03:02:53.587Z,52.87
2023-01-01T03:05:58.674Z,53.51
2023-01-01T03:08:31.425Z,53.38
2023-01-01T03:11:14.475Z,52.85
2023-01-01T03:13:46.894Z,52.92
2023-01-01T03:16:19.078Z,52.55
2023-01-01T03:19:10.879Z,53.23
2023-01-01T03:21:44.589Z,53.18
2023-01-01T03:24:17.659Z,53.52
2023-01-01T03:26:48.127Z,53.51
2023-01-01T03:29:15.350Z,53.83
2023-01-01T03:31:45.121Z,53.80
2023-01-01T03:34:26.073Z,53.85
2023-01-01T03:36:57.199Z,54.42
2023-01-01T03:39:50.437Z,54.14
2023-01-01T03:42:40.832Z,54.61
2023-01-01T03:45:36.520Z,54.56
2023-01-01T03:48:05.350Z,54.91
2023-01-01T03:50:50.604Z,54.94
2023-01-01T03:53:40.151Z,55.45
2023-01-01T03:56:28.611Z,55.39
2023-01-01T03:59:11.313Z,56.08
2023-01-01T04:01:45.211Z,57.39
2023-01-01T04:04:13.849Z,59.01
2023-01-01T04:06:40.588Z,59.01
2023-01-01T04:09:13.610Z,59.86
2023-01-01T04:12:04.018Z,59.95
2023-01-01T04:14:36.751Z,60.92
2023-01-01T04:17:05.253Z,60.34
2023-01-01T04:19:32.808Z,61.31
2023-01-01T04:22:00.398Z,60.61
2023-01-01T04:24:27.361Z,61.15
2023-01-01T04:26:54.928Z,60.88
2023-01-01T04:29:22.874Z,60.70
2023-01-01T04:31:49.785Z,61.79
2023-01-01T04:34:16.706Z,61.52
2023-01-01T04:36:43.421Z,62.06
2023-01-01T04:39:10.313Z,62.15
2023-01-01T04:41:37.029Z,62.17
2023-01-01T04:44:03.972Z,62.64
2023-01-01T04:46:30.763Z,63.17
2023-01-01T04:48:57.562Z,63.17
2023-01-01T04:51:24.315Z,63.14
2023-01-01T04:53:51.068Z,63.58
2023-01-01T04:56:20.597Z,63.84
2023-01-01T04:58:48.296Z,63.71
2023-01-01T05:01:28.768Z,63.65
2023-01-01T05:03:57.348Z,63.53
2023-01-01T05:06:25.576Z,63.56
2023-01-01T05:08:57.466Z,63.60
2023-01-01T05:11:26.749Z,63.76
2023-01-01T05:13:55.845Z,63.52
2023-01-01T05:16:25.622Z,63.35
2023-01-01T05:18:53.119Z,63.31
2023-01-01T05:21:25.500Z,63.87
2023-01-01T05:23:56.879Z,63.70
2023-01-01T05:26:25.385Z,63.67
2023-01-01T05:28:52.105Z,63.89
2023-01-01T05:31:21.504Z,63.71
2023-01-01T05:33:49.568Z,63.55
2023-01-01T05:36:20.535Z,63.91
2023-01-01T05:38:47.612Z,64.29
2023-01-01T05:41:16.490Z,64.69
2023-01-01T05:43:43.762Z,64.48
2023-01-01T05:46:13.762Z,64.13
2023-01-01T05:48:40.632Z,64.34
2023-01-01T05:51:16.757Z,64.79
2023-01-01T05:53:44.734Z,65.03
2023-01-01T05:56:12.602Z,65.33
2023-01-01T05:58:39.274Z,65.54
2023-01-01T06:01:09.771Z,66.02
2023-01-01T06:03:37.027Z,66.09
2023-01-01T06:06:08.720Z,66.08
2023-01-01T06:08:35.445Z,66.48
2023-01-01T06:11:04.691Z,66.82
2023-01-01T06:13:31.974Z,67.03
2023-01-01T06:16:00.256Z,67.23
2023-01-01T06:18:30.338Z,67.63
2023-01-01T06:21:11.183Z,68.94
2023-01-01T06:23:38.613Z,71.22
2023-01-01T06:26:13.924Z,74.29
2023-01-01T06:28:41.190Z,77.89
2023-01-01T06:31:10.174Z,80.53
2023-01-01T06:33:37.280Z,83.09
2023-01-01T06:36:06.674Z,86.24
2023-01-01T06:38:35.260Z,89.45
2023-01-01T06:41:07.440Z,92.98
2023-01-01T06:43:35.652Z,95.37
2023-01-01T06:46:16.384Z,97.58
2023-01-01T06:48:43.932Z,98.86
2023-01-01T06:51:16.446Z,100.00
2023-01-01T06:53:43.351Z,100.00
2023-01-01T06:56:10.843Z,100.00
2023-01-01T06:58:37.649Z,100.00
2023-01-01T07:01:08.240Z,100.00
2023-01-01T07:03:36.448Z,100.00
2023-01-01T07:06:03.740Z,100.00
2023-01-01T07:08:30.465Z,100.00
2023-01-01T07:10:58.010Z,100.00
2023-01-01T07:13:26.011Z,100.00
2023-01-01T07:15:52.715Z,100.00
2023-01-01T07:18:20.733Z,100.00
2023-01-01T07:20:54.625Z,100.00
2023-01-01T07:23:21.359Z,100.00
2023-01-01T07:25:52.651Z,100.00
2023-01-01T07:28:19.776Z,100.00
2023-01-01T07:30:46.734Z,100.00
2023-01-01T07:33:15.763Z,100.00
2023-01-01T07:35:44.963Z,100.00
2023-01-01T07:38:12.349Z,100.00
2023-01-01T07:40:39.636Z,100.00
2023-01-01T07:43:06.788Z,100.00
2023-01-01T07:45:34.491Z,100.00
2023-01-01T07:48:02.117Z,100.00
2023-01-01T07:50:31.137Z,100.00
2023-01-01T07:52:57.841Z,100.00
2023-01-01T07:55:24.690Z,100.00
2023-01-01T07:57:51.415Z,100.00
2023-01-01T08:00:20.460Z,100.00
2023-01-01T08:02:47.948Z,100.00
2023-01-01T08:05:14.808Z,100.00
2023-01-01T08:07:46.784Z,100.00
2023-01-01T08:10:14.044Z,100.00
2023-01-01T08:12:41.070Z,100.00
2023-01-01T08:15:09.027Z,100.00
2023-01-01T08:17:37.796Z,100.00
2023-01-01T08:20:08.843Z,100.00
2023-01-01T08:22:35.538Z,100.00
2023-01-01T08:25:02.354Z,100.00
2023-01-01T08:27:29.139Z,100.00
2023-01-01T08:29:56.932Z,100.00
2023-01-01T08:32:24.552Z,100.00
2023-01-01T08:34:51.276Z,100.00
2023-01-01T08:37:24.748Z,100.00
2023-01-01T08:39:53.873Z,100.00
2023-01-01T08:42:20.591Z,100.00
2023-01-01T08:44:47.399Z,100.00
2023-01-01T08:47:23.425Z,100.00
2023-01-01T08:49:50.433Z,100.00
2023-01-01T08:52:17.647Z,100.00
2023-01-01T08:54:44.362Z,100.00
2023-01-01T08:57:11.855Z,100.00
2023-01-01T08:59:38.670Z,100.00
2023-01-01T09:02:06.416Z,100.00
2023-01-01T09:04:33.582Z,100.00
2023-01-01T09:07:00.342Z,100.00
2023-01-01T09:09:31.427Z,99.60
2023-01-01T09:12:04.035Z,98.75
2023-01-01T09:14:31.441Z,98.31
2023-01-01T09:16:58.449Z,97.11
2023-01-01T09:19:25.281Z,96.04
2023-01-01T09:21:52.395Z,94.42
2023-01-01T09:24:19.110Z,95.24
2023-01-01T09:26:46.701Z,95.36
2023-01-01T09:29:13.655Z,94.47
2023-01-01T09:31:41.252Z,94.10
2023-01-01T09:34:07.996Z,93.55
2023-01-01T09:36:37.116Z,92.57
2023-01-01T09:39:04.201Z,92.65
2023-01-01T09:42:03.026Z,93.00
2023-01-01T09:45:27.133Z,92.83
2023-01-01T09:47:58.994Z,91.74
2023-01-01T09:50:35.717Z,91.66
2023-01-01T09:53:12.979Z,91.38
2023-01-01T09:55:47.672Z,91.25
2023-01-01T09:58:15.737Z,90.61
2023-01-01T10:00:46.841Z,91.03
2023-01-01T10:03:28.607Z,90.96
2023-01-01T10:06:20.773Z,90.58
2023-01-01T10:09:16.988Z,90.53
2023-01-01T10:11:57.917Z,90.05
2023-01-01T10:14:34.417Z,89.98
2023-01-01T10:17:06.601Z,88.99
2023-01-01T10:19:48.088Z,88.83
2023-01-01T10:22:28.810Z,87.65
2023-01-01T10:25:01.438Z,86.78
2023-01-01T10:27:34.004Z,86.19
2023-01-01T10:30:05.296Z,86.65
2023-01-01T10:32:36.850Z,85.48
2023-01-01T10:35:12.962Z,85.08
2023-01-01T10:37:40.071Z,84.54
2023-01-01T10:40:16.127Z,83.71
2023-01-01T10:42:52.983Z,82.94
2023-01-01T10:45:34.203Z,82.58
2023-01-01T10:48:20.090Z,82.26
2023-01-01T10:51:05.334Z,81.15
2023-01-01T10:53:40.447Z,81.08
2023-01-01T10:56:15.839Z,80.22
2023-01-01T10:58:59.562Z,80.50
2023-01-01T11:01:34.172Z,80.19
2023-01-01T11:04:01.071Z,80.59
2023-01-01T11:06:35.275Z,80.61
2023-01-01T11:09:07.250Z,80.62
2023-01-01T11:11:42.818Z,79.70
2023-01-01T11:14:21.887Z,79.53
2023-01-01T11:16:49.556Z,79.80
2023-01-01T11:19:30.739Z,79.38
2023-01-01T11:21:57.698Z,79.23
2023-01-01T11:24:27.594Z,79.53
2023-01-01T11:27:13.328Z,79.87
2023-01-01T11:29:40.259Z,78.84
2023-01-01T11:32:08.883Z,78.98
2023-01-01T11:34:43.314Z,78.34
2023-01-01T11:37:11.991Z,78.45
2023-01-01T11:39:43.233Z,77.67
2023-01-01T11:42:18.695Z,77.97
2023-01-01T11:44:48.816Z,77.81
2023-01-01T11:47:23.611Z,78.29
2023-01-01T11:49:56.979Z,77.75
2023-01-01T11:52:38.413Z,77.68
2023-01-01T11:55:17.736Z,77.80
2023-01-01T11:58:02.383Z,78.04
2023-01-01T12:00:34.482Z,77.24
2023-01-01T12:03:16.895Z,76.74
2023-01-01T12:06:10.898Z,76.93
2023-01-01T12:09:18.561Z,76.94
2023-01-01T12:11:53.067Z,76.88
2023-01-01T12:14:25.986Z,75.94
2023-01-01T12:17:10.901Z,76.45
2023-01-01T12:19:47.052Z,74.71
2023-01-01T12:22:17.667Z,73.70
2023-01-01T12:24:47.741Z,73.72
2023-01-01T12:27:45.604Z,74.92
2023-01-01T12:30:19.865Z,75.25
2023-01-01T12:33:08.091Z,75.32
2023-01-01T12:35:41.109Z,76.05
2023-01-01T12:38:15.040Z,75.96
2023-01-01T12:40:48.121Z,77.02
2023-01-01T12:43:27.735Z,76.85
2023-01-01T12:46:03.399Z,77.71
2023-01-01T12:48:42.012Z,77.47
2023-01-01T12:51:56.184Z,77.54
2023-01-01T12:54:34.816Z,78.03
2023-01-01T12:57:04.220Z,77.87
2023-01-01T12:59:39.834Z,77.83
2023-01-01T13:02:29.157Z,77.92
2023-01-01T13:05:05.745Z,77.63
2023-01-01T13:07:47.168Z,77.50
2023-01-01T13:10:34.574Z,77.47
2023-01-01T13:13:02.756Z,77.61
2023-01-01T13:15:40.045Z,77.11
2023-01-01T13:18:14.090Z,77.86
2023-01-01T13:21:02.362Z,77.35
2023-01-01T13:23:29.088Z,76.88
2023-01-01T13:26:17.252Z,76.57
2023-01-01T13:28:59.265Z,77.00
2023-01-01T13:31:38.544Z,77.13
2023-01-01T13:35:02.803Z,77.12
2023-01-01T13:37:31.761Z,76.92
2023-01-01T13:40:24.437Z,77.64
2023-01-01T13:42:59.174Z,77.94
2023-01-01T13:46:11.071Z,78.10
2023-01-01T13:48:33.924Z,78.67
2023-01-01T13:52:03.448Z,79.78
2023-01-01T13:54:36.139Z,80.32
2023-01-01T13:57:12.097Z,81.01
2023-01-01T13:59:57.354Z,80.98
2023-01-01T14:02:32.367Z,81.14
2023-01-01T14:05:14.139Z,81.29
2023-01-01T14:08:00.409Z,81.60
2023-01-01T14:10:31.618Z,81.53
2023-01-01T14:13:15.467Z,81.61
2023-01-01T14:16:07.972Z,82.14
2023-01-01T14:18:43.655Z,82.32
2023-01-01T14:21:19.732Z,82.31
2023-01-01T14:24:10.374Z,83.15
2023-01-01T14:26:39.196Z,83.17
2023-01-01T14:29:08.872Z,83.58
2023-01-01T14:31:42.484Z,83.47
2023-01-01T14:34:24.194Z,83.77
2023-01-01T14:36:53.734Z,83.98
2023-01-01T14:39:27.658Z,84.22
2023-01-01T14:41:59.527Z,84.28
2023-01-01T14:44:33.855Z,84.35
2023-01-01T14:47:01.268Z,84.52
2023-01-01T14:49:37.855Z,85.16
2023-01-01T14:52:14.676Z,85.44
2023-01-01T14:54:44.197Z,86.03
2023-01-01T14:57:17.108Z,85.87
2023-01-01T14:59:56.454Z,85.87
2023-01-01T15:02:31.869Z,85.94
2023-01-01T15:05:14.958Z,86.35
2023-01-01T15:07:41.861Z,86.70
2023-01-01T15:10:12.507Z,86.60
2023-01-01T15:12:56.459Z,86.97
2023-01-01T15:15:47.050Z,87.03
2023-01-01T15:19:12.611Z,87.62
2023-01-01T15:21:46.581Z,88.20
2023-01-01T15:24:26.165Z,88.00
2023-01-01T15:27:11.835Z,88.31
2023-01-01T15:29:41.319Z,88.52
2023-01-01T15:32:11.591Z,88.43
2023-01-01T15:34:48.107Z,88.88
2023-01-01T15:37:44.607Z,89.05
2023-01-01T15:40:14.167Z,90.11
2023-01-01T15:43:04.830Z,89.55
2023-01-01T15:45:41.256Z,90.00
2023-01-01T15:48:11.107Z,90.37
2023-01-01T15:50:44.075Z,91.58
2023-01-01T15:53:18.450Z,92.00
2023-01-01T15:55:51.730Z,93.25
2023-01-01T15:58:31.803Z,93.95
2023-01-01T16:01:02.923Z,93.90
2023-01-01T16:03:33.290Z,94.10
2023-01-01T16:06:00.794Z,95.67
2023-01-01T16:08:27.851Z,96.34
2023-01-01T16:10:54.747Z,96.92
2023-01-01T16:13:54.165Z,97.02
2023-01-01T16:16:26.463Z,97.87
2023-01-01T16:18:57.719Z,98.44
2023-01-01T16:21:43.041Z,99.24
2023-01-01T16:24:14.955Z,99.64
2023-01-01T16:26:42.741Z,100.00
2023-01-01T16:29:09.913Z,100.00
2023-01-01T16:31:37.351Z,100.00
2023-01-01T16:34:05.283Z,100.00
2023-01-01T16:36:31.931Z,100.00
2023-01-01T16:38:59.155Z,100.00
2023-01-01T16:41:28.854Z,100.00
2023-01-01T16:43:56.559Z,100.00
2023-01-01T16:46:23.501Z,100.00
2023-01-01T16:48:50.239Z,100.00
2023-01-01T16:51:23.512Z,100.00
2023-01-01T16:53:50.260Z,100.00
2023-01-01T16:56:17.453Z,100.00
2023-01-01T16:58:55.243Z,100.00
2023-01-01T17:01:27.254Z,100.00
2023-01-01T17:03:54.294Z,100.00
2023-01-01T17:06:21.193Z,100.00
2023-01-01T17:08:47.956Z,100.00
2023-01-01T17:11:18.767Z,100.00
2023-01-01T17:13:48.030Z,100.00
2023-01-01T17:16:25.489Z,100.00
2023-01-01T17:19:17.885Z,100.00
2023-01-01T17:21:57.192Z,100.00
2023-01-01T17:24:41.890Z,100.00
2023-01-01T17:27:18.017Z,100.00
2023-01-01T17:29:57.409Z,100.00
2023-01-01T17:32:26.903Z,100.00
2023-01-01T17:35:08.192Z,100.00
2023-01-01T17:37:37.445Z,100.00
2023-01-01T17:40:04.559Z,100.00
2023-01-01T17:42:31.344Z,100.00
2023-01-01T17:44:58.069Z,100.00
2023-01-01T17:47:30.750Z,100.00
2023-01-01T17:49:59.801Z,100.00
2023-01-01T17:52:29.082Z,100.00
2023-01-01T17:54:55.912Z,100.00
2023-01-01T17:57:22.713Z,100.00
2023-01-01T17:59:49.479Z,100.00
2023-01-01T18:02:16.436Z,100.00
2023-01-01T18:04:43.448Z,100.00
2023-01-01T18:07:10.193Z,100.00
2023-01-01T18:09:38.381Z,100.00
2023-01-01T18:12:06.244Z,100.00
2023-01-01T18:14:33.148Z,100.00
2023-01-01T18:16:59.922Z,100.00
2023-01-01T18:19:27.819Z,100.00
2023-01-01T18:21:54.566Z,100.00
2023-01-01T18:24:21.319Z,100.00
2023-01-01T18:26:48.125Z,100.00
2023-01-01T18:29:15.882Z,100.00
2023-01-01T18:31:43.685Z,100.00
2023-01-01T18:34:11.152Z,100.00
2023-01-01T18:36:38.170Z,100.00
2023-01-01T18:39:20.243Z,100.00
2023-01-01T18:42:15.188Z,100.00
2023-01-01T18:44:41.950Z,100.00
2023-01-01T18:47:17.124Z,100.00
2023-01-01T18:49:54.087Z,100.00
2023-01-01T18:52:26.285Z,100.00
2023-01-01T18:55:13.699Z,100.00
2023-01-01T18:57:41.429Z,100.00
2023-01-01T19:00:28.372Z,100.00
2023-01-01T19:03:04.412Z,100.00
2023-01-01T19:05:33.539Z,100.00
2023-01-01T19:08:09.089Z,100.00
2023-01-01T19:10:56.424Z,100.00
2023-01-01T19:13:33.214Z,100.00
2023-01-01T19:16:12.842Z,100.00
2023-01-01T19:18:43.920Z,100.00
2023-01-01T19:21:10.708Z,100.00
2023-01-01T19:23:41.456Z,100.00
2023-01-01T19:26:23.995Z,100.00
2023-01-01T19:28:57.209Z,100.00
2023-01-01T19:31:24.499Z,100.00
2023-01-01T19:33:51.641Z,100.00
2023-01-01T19:36:19.501Z,100.00
2023-01-01T19:38:46.254Z,100.00
2023-01-01T19:41:13.029Z,100.00
2023-01-01T19:43:41.125Z,100.00
2023-01-01T19:46:07.866Z,100.00
2023-01-01T19:48:34.971Z,100.00
2023-01-01T19:51:01.723Z,100.00
2023-01-01T19:53:28.457Z,100.00
2023-01-01T19:55:55.228Z,100.00
2023-01-01T19:58:23.139Z,100.00
2023-01-01T20:00:50.423Z,100.00
2023-01-01T20:06:05.097Z,100.00
2023-01-01T20:08:32.442Z,100.00
2023-01-01T20:11:00.677Z,100.00
2023-01-01T20:13:27.406Z,100.00
2023-01-01T20:15:54.372Z,100.00
2023-01-01T20:18:21.112Z,100.00
2023-01-01T20:21:06.521Z,100.00
2023-01-01T20:23:33.289Z,100.00
2023-01-01T20:26:00.047Z,100.00
2023-01-01T20:28:45.298Z,100.00
2023-01-01T20:31:12.069Z,100.00
2023-01-01T20:33:38.900Z,100.00
2023-01-01T20:36:24.819Z,100.00
2023-01-01T20:38:51.582Z,100.00
2023-01-01T20:41:24.272Z,100.00
2023-01-01T20:43:53.035Z,100.00
2023-01-01T20:46:20.550Z,100.00
2023-01-01T20:48:47.554Z,100.00
2023-01-01T20:51:14.394Z,100.00
2023-01-01T20:53:41.152Z,100.00
2023-01-01T20:56:07.891Z,100.00
2023-01-01T20:58:34.781Z,100.00
2023-01-01T21:01:01.716Z,100.00
2023-01-01T21:03:28.613Z,100.00
2023-01-01T21:05:55.578Z,100.00
2023-01-01T21:08:22.305Z,100.00
2023-01-01T21:10:49.087Z,100.00
2023-01-01T21:13:15.908Z,100.00
2023-01-01T21:15:42.644Z,100.00
2023-01-01T21:18:12.015Z,100.00
2023-01-01T21:20:46.387Z,100.00
2023-01-01T21:23:29.972Z,100.00
2023-01-01T21:25:57.341Z,100.00
2023-01-01T21:28:32.894Z,100.00
2023-01-01T21:31:01.099Z,100.00
2023-01-01T21:33:30.271Z,100.00
2023-01-01T21:35:57.413Z,100.00
2023-01-01T21:38:29.086Z,100.00
2023-01-01T21:41:00.175Z,100.00
2023-01-01T21:43:35.784Z,100.00
2023-01-01T21:46:16.664Z,100.00
2023-01-01T21:48:43.399Z,100.00
2023-01-01T21:51:21.374Z,100.00
2023-01-01T21:53:48.486Z,100.00
2023-01-01T21:56:27.988Z,100.00
2023-01-01T21:59:18.337Z,100.00
2023-01-01T22:01:46.161Z,100.00
2023-01-01T22:04:12.866Z,100.00
2023-01-01T22:06:43.502Z,100.00
2023-01-01T22:09:17.647Z,100.00
2023-01-01T22:11:45.483Z,100.00
2023-01-01T22:14:17.575Z,100.00
2023-01-01T22:16:51.257Z,100.00
2023-01-01T22:19:21.809Z,100.00
2023-01-01T22:21:50.613Z,100.00
2023-01-01T22:24:32.493Z,100.00
2023-01-01T22:27:27.681Z,100.00
2023-01-01T22:29:56.095Z,100.00
2023-01-01T22:32:29.489Z,100.00
2023-01-01T22:35:13.268Z,100.00
2023-01-01T22:37:41.663Z,100.00
2023-01-01T22:40:29.153Z,100.00
2023-01-01T22:43:10.920Z,100.00
2023-01-01T22:45:38.859Z,100.00
2023-01-01T22:48:06.943Z,100.00
2023-01-01T22:50:34.562Z,100.00
2023-01-01T22:53:01.282Z,100.00
2023-01-01T22:55:28.023Z,100.00
2023-01-01T22:57:54.745Z,100.00
2023-01-01T23:00:21.544Z,100.00
2023-01-01T23:02:48.287Z,100.00
2023-01-01T23:05:15.117Z,100.00
2023-01-01T23:07:43.154Z,100.00
2023-01-01T23:10:14.908Z,100.00
2023-01-01T23:12:41.654Z,100.00
2023-01-01T23:15:27.038Z,100.00
2023-01-01T23:17:53.919Z,100.00
2023-01-01T23:20:20.763Z,100.00
2023-01-01T23:22:51.196Z,100.00
2023-01-01T23:25:19.612Z,100.00
2023-01-01T23:27:48.002Z,100.00
2023-01-01T23:30:15.220Z,100.00
2023-01-01T23:32:42.407Z,100.00
2023-01-01T23:35:10.599Z,100.00
2023-01-01T23:37:38.649Z,100.00
2023-01-01T23:40:06.026Z,100.00
2023-01-01T23:42:32.888Z,100.00
2023-01-01T23:44:59.780Z,100.00
2023-01-01T23:47:26.749Z,100.00
2023-01-01T23:49:53.570Z,100.00
2023-01-01T23:52:20.435Z,100.00
2023-01-01T23:54:47.230Z,100.00
2023-01-01T23:57:14.189Z,100.00
2023-01-01T23:59:40.872Z,100.00
